Terminal Aerodrome Forecast
Issued by NWS

Home | Current Version | Previous Version | Graphics & Text | Print | Product List | Glossary On
Versions: 1 2 3 4 5 6 7 8 9 10 11 12 13 14 15 16 17
564
FTUS43 KABR 231140
TAFATY
TAF
KATY 231140Z 2312/2412 17005KT P6SM SCT250
     FM240000 15005KT P6SM BKN100
     FM240700 03009KT P6SM BKN060=

USA.gov is the U.S. government's official web portal to all federal, state and local government web resources and services.